Terminal Aerodrome Forecast
Issued by NWS

Home | Current Version | Previous Version | Text Only | Print | Product List | Glossary On
Versions: 1 2 3 4 5 6 7 8 9 10 11 12 13 14 15 16 17 18 19
000
FTUS43 KMPX 290800 AAA
TAFRWF
TAF AMD
KRWF 290852Z 2909/3006 14008KT 4SM BR SKC
     FM291500 20009KT P6SM FEW200
     FM291900 27008KT P6SM SCT200
     FM300200 32010KT P6SM BKN012=

USA.gov is the U.S. government's official web portal to all federal, state and local government web resources and services.